Dades meteomassalio
Diari Summary for Febrer 27, 2018 Units:  Both    English   Metric
« Previous Day
Next Day »
Diari Semanal Mensual Anual Personalitzat
  Maxima: Minima: Mijana:
Temperatura: TemperatureC °F /  -17.8 °C -3.3 °F /  -19.6 °C 0.7 °F /  -17.4 °C
Rosada: DewpointC °F /  -17.8 °C -10.4 °F /  -23.6 °C -7.4 °F /  -21.9 °C
Humitat: Humidity % 42 % 56 %
Velocitat del vent: WindSpeedKMH mph /  0 km/h - 7.2 mph /  11.6 km/h
Racha vent: WindSpeedGustKMH mph /  0 km/h - -
Vent:- - West
Pressio: PressurehPa in /  0 hPa 1009.7 in /  34188.4 hPa -
Pluja: 0.0 in /  0 mm    
Historical Graphs
 
 
Tabular Data for Febrer 27, 2018
Time Temperature Dew Point Pressure Wind Wind Speed Wind Gust Humidity Rainfall Rate (Hourly) solar Conditions
TemperatureC °F /  -17.8 °C DewpointC °F /  -17.8 °C PressurehPa in /  0 hPa Calm     Humidity % HourlyPrecipMM in /  0 mm SolarRadiationWatts/m^2 W/m2 Conditions
00:01 2.8 °F /  -16.2 °C -8.3 °F /  -22.4 °C 1010.7 in /  34222.3 hPa WNW 18.5 mph /  29.8 km/h 18.5 mph /  29.8 km/h 44 % 0.0 in /  0 mm 0.0 W/m2 CLR
00:06 2.8 °F /  -16.2 °C -8.3 °F /  -22.4 °C 1010.4 in /  34212.1 hPa NW 13.0 mph /  20.9 km/h 13.0 mph /  20.9 km/h 44 % 0.0 in /  0 mm 0.0 W/m2 CLR
00:11 2.8 °F /  -16.2 °C -8.3 °F /  -22.4 °C 1010.7 in /  34222.3 hPa WNW 14.8 mph /  23.8 km/h 14.8 mph /  23.8 km/h 44 % 0.0 in /  0 mm 0.0 W/m2 CLR
00:16 2.2 °F /  -16.6 °C -8.8 °F /  -22.7 °C 1010.7 in /  34222.3 hPa WNW 9.3 mph /  15 km/h 9.3 mph /  15 km/h 44 % 0.0 in /  0 mm 0.0 W/m2 CLR
00:21 2.2 °F /  -16.6 °C -8.8 °F /  -22.7 °C 1010.7 in /  34222.3 hPa WNW 9.3 mph /  15 km/h 9.3 mph /  15 km/h 44 % 0.0 in /  0 mm 0.0 W/m2 CLR
00:26 2.2 °F /  -16.6 °C -8.5 °F /  -22.5 °C 1010.7 in /  34222.3 hPa NW 12.9 mph /  20.8 km/h 12.9 mph /  20.8 km/h 45 % 0.0 in /  0 mm 0.0 W/m2 CLR
00:31 2.2 °F /  -16.6 °C -8.5 °F /  -22.5 °C 1010.7 in /  34222.3 hPa WNW 16.7 mph /  26.9 km/h 16.7 mph /  26.9 km/h 45 % 0.0 in /  0 mm 0.0 W/m2 CLR
00:36 2.2 °F /  -16.6 °C -8.5 °F /  -22.5 °C 1010.7 in /  34222.3 hPa NW 20.4 mph /  32.8 km/h 20.4 mph /  32.8 km/h 45 % 0.0 in /  0 mm 0.0 W/m2 CLR
00:41 2.2 °F /  -16.6 °C -8.5 °F /  -22.5 °C 1010.7 in /  34222.3 hPa NW 18.5 mph /  29.8 km/h 18.5 mph /  29.8 km/h 45 % 0.0 in /  0 mm 0.0 W/m2 CLR
00:46 2.2 °F /  -16.6 °C -8.5 °F /  -22.5 °C 1011.1 in /  34235.8 hPa NW 18.5 mph /  29.8 km/h 18.5 mph /  29.8 km/h 45 % 0.0 in /  0 mm 0.0 W/m2 CLR
00:51 2.2 °F /  -16.6 °C -8.5 °F /  -22.5 °C 1011.1 in /  34235.8 hPa WNW 20.9 mph /  33.6 km/h 20.9 mph /  33.6 km/h 45 % 0.0 in /  0 mm 0.0 W/m2 CLR
00:56 2.2 °F /  -16.6 °C -8.5 °F /  -22.5 °C 1011.1 in /  34235.8 hPa NW 24.1 mph /  38.8 km/h 24.1 mph /  38.8 km/h 45 % 0.0 in /  0 mm 0.0 W/m2 CLR
01:01 2.2 °F /  -16.6 °C -8.5 °F /  -22.5 °C 1010.7 in /  34222.3 hPa NW 20.4 mph /  32.8 km/h 20.4 mph /  32.8 km/h 45 % 0.0 in /  0 mm 0.0 W/m2 CLR
01:06 2.2 °F /  -16.6 °C -8.5 °F /  -22.5 °C 1011.1 in /  34235.8 hPa WNW 27.8 mph /  44.7 km/h 27.8 mph /  44.7 km/h 45 % 0.0 in /  0 mm 0.0 W/m2 CLR
01:11 2.2 °F /  -16.6 °C -8.2 °F /  -22.3 °C 1011.1 in /  34235.8 hPa NW 20.9 mph /  33.6 km/h 20.9 mph /  33.6 km/h 46 % 0.0 in /  0 mm 0.0 W/m2 CLR
01:16 2.2 °F /  -16.6 °C -8.2 °F /  -22.3 °C 1011.1 in /  34235.8 hPa NW 16.7 mph /  26.9 km/h 16.7 mph /  26.9 km/h 46 % 0.0 in /  0 mm 0.0 W/m2 CLR
01:21 2.2 °F /  -16.6 °C -8.2 °F /  -22.3 °C 1011.1 in /  34235.8 hPa WNW 14.8 mph /  23.8 km/h 14.8 mph /  23.8 km/h 46 % 0.0 in /  0 mm 0.0 W/m2 CLR
01:26 1.7 °F /  -16.8 °C -8.7 °F /  -22.6 °C 1011.1 in /  34235.8 hPa WNW 18.5 mph /  29.8 km/h 18.5 mph /  29.8 km/h 46 % 0.0 in /  0 mm 0.0 W/m2 CLR
01:31 1.7 °F /  -16.8 °C -8.7 °F /  -22.6 °C 1011.1 in /  34235.8 hPa WNW 18.5 mph /  29.8 km/h 18.5 mph /  29.8 km/h 46 % 0.0 in /  0 mm 0.0 W/m2 CLR
01:36 1.7 °F /  -16.8 °C -8.7 °F /  -22.6 °C 1011.4 in /  34246 hPa NNW 17.7 mph /  28.5 km/h 17.7 mph /  28.5 km/h 46 % 0.0 in /  0 mm 0.0 W/m2 CLR
01:41 1.7 °F /  -16.8 °C -8.7 °F /  -22.6 °C 1011.4 in /  34246 hPa NW 20.4 mph /  32.8 km/h 20.4 mph /  32.8 km/h 46 % 0.0 in /  0 mm 0.0 W/m2 CLR
01:46 1.7 °F /  -16.8 °C -8.7 °F /  -22.6 °C 1011.4 in /  34246 hPa NW 20.4 mph /  32.8 km/h 20.4 mph /  32.8 km/h 46 % 0.0 in /  0 mm 0.0 W/m2 CLR
01:51 1.7 °F /  -16.8 °C -8.7 °F /  -22.6 °C 1011.4 in /  34246 hPa WNW 20.4 mph /  32.8 km/h 20.4 mph /  32.8 km/h 46 % 0.0 in /  0 mm 0.0 W/m2 CLR
01:56 1.7 °F /  -16.8 °C -8.7 °F /  -22.6 °C 1011.4 in /  34246 hPa WNW 18.5 mph /  29.8 km/h 18.5 mph /  29.8 km/h 46 % 0.0 in /  0 mm 0.0 W/m2 CLR
02:01 1.1 °F /  -17.2 °C -9.2 °F /  -22.9 °C 1011.4 in /  34246 hPa WSW 4.8 mph /  7.7 km/h 4.8 mph /  7.7 km/h 46 % 0.0 in /  0 mm 0.0 W/m2 CLR
02:06 1.1 °F /  -17.2 °C -8.9 °F /  -22.7 °C 1011.4 in /  34246 hPa West 3.2 mph /  5.1 km/h 3.2 mph /  5.1 km/h 47 % 0.0 in /  0 mm 0.0 W/m2 CLR
02:11 1.1 °F /  -17.2 °C -8.9 °F /  -22.7 °C 1011.4 in /  34246 hPa WSW 14.8 mph /  23.8 km/h 14.8 mph /  23.8 km/h 47 % 0.0 in /  0 mm 0.0 W/m2 CLR
02:16 1.1 °F /  -17.2 °C -8.9 °F /  -22.7 °C 1011.4 in /  34246 hPa SW 7.4 mph /  11.9 km/h 7.4 mph /  11.9 km/h 47 % 0.0 in /  0 mm 0.0 W/m2 CLR
02:21 1.1 °F /  -17.2 °C -8.7 °F /  -22.6 °C 1011.7 in /  34256.2 hPa WSW 8.0 mph /  12.9 km/h 8.0 mph /  12.9 km/h 48 % 0.0 in /  0 mm 0.0 W/m2 CLR
02:26 1.7 °F /  -16.8 °C -8.4 °F /  -22.4 °C 1011.7 in /  34256.2 hPa West 11.1 mph /  17.9 km/h 11.1 mph /  17.9 km/h 47 % 0.0 in /  0 mm 0.0 W/m2 CLR
02:31 1.7 °F /  -16.8 °C -8.2 °F /  -22.3 °C 1011.4 in /  34246 hPa West 11.3 mph /  18.2 km/h 11.3 mph /  18.2 km/h 48 % 0.0 in /  0 mm 0.0 W/m2 CLR
02:36 1.7 °F /  -16.8 °C -8.2 °F /  -22.3 °C 1011.4 in /  34246 hPa West 20.9 mph /  33.6 km/h 20.9 mph /  33.6 km/h 48 % 0.0 in /  0 mm 0.0 W/m2 CLR
02:41 1.7 °F /  -16.8 °C -8.4 °F /  -22.4 °C 1011.4 in /  34246 hPa WNW 16.7 mph /  26.9 km/h 16.7 mph /  26.9 km/h 47 % 0.0 in /  0 mm 0.0 W/m2 CLR
02:46 1.1 °F /  -17.2 °C -8.9 °F /  -22.7 °C 1011.4 in /  34246 hPa WNW 25.9 mph /  41.7 km/h 25.9 mph /  41.7 km/h 47 % 0.0 in /  0 mm 0.0 W/m2 CLR
02:51 1.1 °F /  -17.2 °C -8.9 °F /  -22.7 °C 1011.4 in /  34246 hPa NW 16.7 mph /  26.9 km/h 16.7 mph /  26.9 km/h 47 % 0.0 in /  0 mm 0.0 W/m2 CLR
02:56 0.6 °F /  -17.4 °C -9.5 °F /  -23.1 °C 1011.4 in /  34246 hPa NW 20.4 mph /  32.8 km/h 20.4 mph /  32.8 km/h 47 % 0.0 in /  0 mm 0.0 W/m2 CLR
03:01 0.6 °F /  -17.4 °C -9.5 °F /  -23.1 °C 1011.4 in /  34246 hPa NW 17.7 mph /  28.5 km/h 17.7 mph /  28.5 km/h 47 % 0.0 in /  0 mm 0.0 W/m2 CLR
03:06 0.6 °F /  -17.4 °C -9.5 °F /  -23.1 °C 1011.4 in /  34246 hPa NW 14.8 mph /  23.8 km/h 14.8 mph /  23.8 km/h 47 % 0.0 in /  0 mm 0.0 W/m2 CLR
03:11 0.6 °F /  -17.4 °C -9.2 °F /  -22.9 °C 1011.4 in /  34246 hPa WSW 20.9 mph /  33.6 km/h 20.9 mph /  33.6 km/h 48 % 0.0 in /  0 mm 0.0 W/m2 CLR
03:16 1.1 °F /  -17.2 °C -8.7 °F /  -22.6 °C 1011.1 in /  34235.8 hPa WSW 18.5 mph /  29.8 km/h 18.5 mph /  29.8 km/h 48 % 0.0 in /  0 mm 0.0 W/m2 CLR
03:22 1.1 °F /  -17.2 °C -8.7 °F /  -22.6 °C 1011.4 in /  34246 hPa West 18.5 mph /  29.8 km/h 18.5 mph /  29.8 km/h 48 % 0.0 in /  0 mm 0.0 W/m2 CLR
03:27 0.6 °F /  -17.4 °C -9.2 °F /  -22.9 °C 1011.4 in /  34246 hPa NW 14.8 mph /  23.8 km/h 14.8 mph /  23.8 km/h 48 % 0.0 in /  0 mm 0.0 W/m2 CLR
03:32 0.0 °F /  -17.8 °C -9.4 °F /  -23 °C 1011.4 in /  34246 hPa WNW 14.8 mph /  23.8 km/h 14.8 mph /  23.8 km/h 49 % 0.0 in /  0 mm 0.0 W/m2 CLR
03:37 0.0 °F /  -17.8 °C -9.4 °F /  -23 °C 1011.4 in /  34246 hPa NW 16.7 mph /  26.9 km/h 16.7 mph /  26.9 km/h 49 % 0.0 in /  0 mm 0.0 W/m2 CLR
03:42 0.0 °F /  -17.8 °C -9.4 °F /  -23 °C 1011.1 in /  34235.8 hPa WNW 22.2 mph /  35.7 km/h 22.2 mph /  35.7 km/h 49 % 0.0 in /  0 mm 0.0 W/m2 CLR
03:47 0.0 °F /  -17.8 °C -9.4 °F /  -23 °C 1011.1 in /  34235.8 hPa WNW 18.5 mph /  29.8 km/h 18.5 mph /  29.8 km/h 49 % 0.0 in /  0 mm 0.0 W/m2 CLR
03:52 0.6 °F /  -17.4 °C -8.9 °F /  -22.7 °C 1011.1 in /  34235.8 hPa West 17.7 mph /  28.5 km/h 17.7 mph /  28.5 km/h 49 % 0.0 in /  0 mm 0.0 W/m2 CLR
03:57 0.6 °F /  -17.4 °C -8.7 °F /  -22.6 °C 1011.1 in /  34235.8 hPa West 8.0 mph /  12.9 km/h 8.0 mph /  12.9 km/h 50 % 0.0 in /  0 mm 0.0 W/m2 CLR
04:02 0.6 °F /  -17.4 °C -8.7 °F /  -22.6 °C 1011.1 in /  34235.8 hPa WNW 18.5 mph /  29.8 km/h 18.5 mph /  29.8 km/h 50 % 0.0 in /  0 mm 0.0 W/m2 CLR
04:07 0.0 °F /  -17.8 °C -9.2 °F /  -22.9 °C 1011.4 in /  34246 hPa NW 14.5 mph /  23.3 km/h 14.5 mph /  23.3 km/h 50 % 0.0 in /  0 mm 0.0 W/m2 CLR
04:12 0.0 °F /  -17.8 °C -8.9 °F /  -22.7 °C 1011.1 in /  34235.8 hPa WNW 7.4 mph /  11.9 km/h 7.4 mph /  11.9 km/h 51 % 0.0 in /  0 mm 0.0 W/m2 CLR
04:17 -0.6 °F /  -18.1 °C -9.4 °F /  -23 °C 1011.1 in /  34235.8 hPa NNW 14.8 mph /  23.8 km/h 14.8 mph /  23.8 km/h 51 % 0.0 in /  0 mm 0.0 W/m2 CLR
04:22 -0.6 °F /  -18.1 °C -9.7 °F /  -23.2 °C 1011.1 in /  34235.8 hPa WNW 18.5 mph /  29.8 km/h 18.5 mph /  29.8 km/h 50 % 0.0 in /  0 mm 0.0 W/m2 CLR
04:27 -0.6 °F /  -18.1 °C -9.7 °F /  -23.2 °C 1011.1 in /  34235.8 hPa WNW 17.7 mph /  28.5 km/h 17.7 mph /  28.5 km/h 50 % 0.0 in /  0 mm 0.0 W/m2 CLR
04:32 -0.6 °F /  -18.1 °C -9.4 °F /  -23 °C 1011.1 in /  34235.8 hPa WNW 13.0 mph /  20.9 km/h 13.0 mph /  20.9 km/h 51 % 0.0 in /  0 mm 0.0 W/m2 CLR
04:37 -0.6 °F /  -18.1 °C -9.2 °F /  -22.9 °C 1011.1 in /  34235.8 hPa West 16.7 mph /  26.9 km/h 16.7 mph /  26.9 km/h 52 % 0.0 in /  0 mm 0.0 W/m2 CLR
04:42 -0.6 °F /  -18.1 °C -9.2 °F /  -22.9 °C 1011.1 in /  34235.8 hPa WNW 7.4 mph /  11.9 km/h 7.4 mph /  11.9 km/h 52 % 0.0 in /  0 mm 0.0 W/m2 CLR
04:47 -0.6 °F /  -18.1 °C -9.0 °F /  -22.8 °C 1011.1 in /  34235.8 hPa WNW 6.4 mph /  10.3 km/h 6.4 mph /  10.3 km/h 53 % 0.0 in /  0 mm 0.0 W/m2 CLR
04:52 -1.1 °F /  -18.4 °C -9.5 °F /  -23.1 °C 1011.1 in /  34235.8 hPa WSW 5.6 mph /  9 km/h 5.6 mph /  9 km/h 53 % 0.0 in /  0 mm 0.0 W/m2 CLR
04:57 -1.7 °F /  -18.7 °C -9.8 °F /  -23.2 °C 1011.1 in /  34235.8 hPa WSW 5.6 mph /  9 km/h 5.6 mph /  9 km/h 54 % 0.0 in /  0 mm 0.0 W/m2 CLR
05:02 -2.2 °F /  -19 °C -10.3 °F /  -23.5 °C 1011.1 in /  34235.8 hPa WNW 9.3 mph /  15 km/h 9.3 mph /  15 km/h 54 % 0.0 in /  0 mm 0.0 W/m2 CLR
05:07 -2.2 °F /  -19 °C -10.3 °F /  -23.5 °C 1011.1 in /  34235.8 hPa WNW 13.0 mph /  20.9 km/h 13.0 mph /  20.9 km/h 54 % 0.0 in /  0 mm 0.0 W/m2 CLR
05:12 -2.2 °F /  -19 °C -10.3 °F /  -23.5 °C 1011.1 in /  34235.8 hPa WNW 12.9 mph /  20.8 km/h 12.9 mph /  20.8 km/h 54 % 0.0 in /  0 mm 0.0 W/m2 CLR
05:17 -1.7 °F /  -18.7 °C -9.6 °F /  -23.1 °C 1011.1 in /  34235.8 hPa WNW 5.6 mph /  9 km/h 5.6 mph /  9 km/h 55 % 0.0 in /  0 mm 0.0 W/m2 CLR
05:22 -2.2 °F /  -19 °C -10.1 °F /  -23.4 °C 1011.1 in /  34235.8 hPa Calm     55 % 0.0 in /  0 mm 0.0 W/m2 CLR
05:27 -2.8 °F /  -19.3 °C -10.3 °F /  -23.5 °C 1011.1 in /  34235.8 hPa WNW 9.7 mph /  15.6 km/h 9.7 mph /  15.6 km/h 56 % 0.0 in /  0 mm 0.0 W/m2 CLR
05:32 -2.2 °F /  -19 °C -9.6 °F /  -23.1 °C 1011.1 in /  34235.8 hPa West 14.8 mph /  23.8 km/h 14.8 mph /  23.8 km/h 57 % 0.0 in /  0 mm 0.0 W/m2 CLR
05:37 -2.2 °F /  -19 °C -9.6 °F /  -23.1 °C 1011.1 in /  34235.8 hPa West 7.4 mph /  11.9 km/h 7.4 mph /  11.9 km/h 57 % 0.0 in /  0 mm 0.0 W/m2 CLR
05:42 -2.2 °F /  -19 °C -9.4 °F /  -23 °C 1011.4 in /  34246 hPa WNW 5.6 mph /  9 km/h 5.6 mph /  9 km/h 58 % 0.0 in /  0 mm 0.0 W/m2 CLR
05:47 -2.8 °F /  -19.3 °C -9.9 °F /  -23.3 °C 1011.4 in /  34246 hPa West 5.6 mph /  9 km/h 5.6 mph /  9 km/h 58 % 0.0 in /  0 mm 0.0 W/m2 CLR
05:52 -2.8 °F /  -19.3 °C -9.7 °F /  -23.2 °C 1011.4 in /  34246 hPa WSW 8.0 mph /  12.9 km/h 8.0 mph /  12.9 km/h 59 % 0.0 in /  0 mm 0.0 W/m2 CLR
05:57 -3.3 °F /  -19.6 °C -9.8 °F /  -23.2 °C 1011.1 in /  34235.8 hPa West 11.3 mph /  18.2 km/h 11.3 mph /  18.2 km/h 61 % 0.0 in /  0 mm 0.0 W/m2 CLR
06:02 -3.3 °F /  -19.6 °C -10.0 °F /  -23.3 °C 1011.1 in /  34235.8 hPa WNW 13.0 mph /  20.9 km/h 13.0 mph /  20.9 km/h 60 % 0.0 in /  0 mm 0.0 W/m2 CLR
06:07 -2.8 °F /  -19.3 °C -9.7 °F /  -23.2 °C 1011.1 in /  34235.8 hPa WNW 13.0 mph /  20.9 km/h 13.0 mph /  20.9 km/h 59 % 0.0 in /  0 mm 0.0 W/m2 CLR
06:12 -2.2 °F /  -19 °C -9.4 °F /  -23 °C 1011.1 in /  34235.8 hPa West 9.7 mph /  15.6 km/h 9.7 mph /  15.6 km/h 58 % 0.0 in /  0 mm 0.0 W/m2 CLR
06:17 -2.2 °F /  -19 °C -9.4 °F /  -23 °C 1011.4 in /  34246 hPa West 5.6 mph /  9 km/h 5.6 mph /  9 km/h 58 % 0.0 in /  0 mm 0.0 W/m2 CLR
06:22 -2.2 °F /  -19 °C -9.4 °F /  -23 °C 1011.4 in /  34246 hPa West 7.4 mph /  11.9 km/h 7.4 mph /  11.9 km/h 58 % 0.0 in /  0 mm 0.0 W/m2 CLR
06:27 -2.2 °F /  -19 °C -9.6 °F /  -23.1 °C 1011.4 in /  34246 hPa WNW 9.3 mph /  15 km/h 9.3 mph /  15 km/h 57 % 0.0 in /  0 mm 0.0 W/m2 CLR
06:32 -2.2 °F /  -19 °C -9.6 °F /  -23.1 °C 1011.1 in /  34235.8 hPa West 14.8 mph /  23.8 km/h 14.8 mph /  23.8 km/h 57 % 0.0 in /  0 mm 0.0 W/m2 CLR
06:37 -2.2 °F /  -19 °C -9.8 °F /  -23.2 °C 1011.4 in /  34246 hPa West 9.3 mph /  15 km/h 9.3 mph /  15 km/h 56 % 0.0 in /  0 mm 0.0 W/m2 CLR
06:42 -1.7 °F /  -18.7 °C -9.1 °F /  -22.8 °C 1011.4 in /  34246 hPa WSW 5.6 mph /  9 km/h 5.6 mph /  9 km/h 57 % 0.0 in /  0 mm 0.0 W/m2 CLR
06:47 -2.2 °F /  -19 °C -9.8 °F /  -23.2 °C 1011.4 in /  34246 hPa WSW 6.4 mph /  10.3 km/h 6.4 mph /  10.3 km/h 56 % 0.0 in /  0 mm 0.0 W/m2 CLR
06:52 -2.2 °F /  -19 °C -9.8 °F /  -23.2 °C 1011.4 in /  34246 hPa NNW 6.4 mph /  10.3 km/h 6.4 mph /  10.3 km/h 56 % 0.0 in /  0 mm 0.0 W/m2 CLR
06:57 -1.7 °F /  -18.7 °C -9.3 °F /  -22.9 °C 1011.4 in /  34246 hPa NW 11.1 mph /  17.9 km/h 11.1 mph /  17.9 km/h 56 % 0.0 in /  0 mm 0.0 W/m2 CLR
07:02 -1.1 °F /  -18.4 °C -9.3 °F /  -22.9 °C 1011.4 in /  34246 hPa NW 14.8 mph /  23.8 km/h 14.8 mph /  23.8 km/h 54 % 0.0 in /  0 mm 0.0 W/m2 CLR
07:07 -0.6 °F /  -18.1 °C -9.0 °F /  -22.8 °C 1011.4 in /  34246 hPa NNW 13.0 mph /  20.9 km/h 13.0 mph /  20.9 km/h 53 % 0.0 in /  0 mm 0.0 W/m2 CLR
07:12 -0.6 °F /  -18.1 °C -8.7 °F /  -22.6 °C 1011.4 in /  34246 hPa NNW 11.3 mph /  18.2 km/h 11.3 mph /  18.2 km/h 54 % 0.0 in /  0 mm 0.0 W/m2 CLR
07:17 -0.6 °F /  -18.1 °C -9.0 °F /  -22.8 °C 1011.4 in /  34246 hPa WNW 7.4 mph /  11.9 km/h 7.4 mph /  11.9 km/h 53 % 0.0 in /  0 mm 0.0 W/m2 CLR
07:22 -0.6 °F /  -18.1 °C -9.0 °F /  -22.8 °C 1011.4 in /  34246 hPa West 13.0 mph /  20.9 km/h 13.0 mph /  20.9 km/h 53 % 0.0 in /  0 mm 0.0 W/m2 CLR
07:27 -0.6 °F /  -18.1 °C -9.2 °F /  -22.9 °C 1011.4 in /  34246 hPa West 18.5 mph /  29.8 km/h 18.5 mph /  29.8 km/h 52 % 0.0 in /  0 mm 0.0 W/m2 OVC
07:32 0.0 °F /  -17.8 °C -8.7 °F /  -22.6 °C 1011.4 in /  34246 hPa West 16.7 mph /  26.9 km/h 16.7 mph /  26.9 km/h 52 % 0.0 in /  0 mm 0.0 W/m2 OVC
07:37 0.0 °F /  -17.8 °C -8.7 °F /  -22.6 °C 1011.4 in /  34246 hPa WNW 16.7 mph /  26.9 km/h 16.7 mph /  26.9 km/h 52 % 0.0 in /  0 mm 0.0 W/m2 OVC
07:42 0.0 °F /  -17.8 °C -8.7 °F /  -22.6 °C 1011.4 in /  34246 hPa NW 14.5 mph /  23.3 km/h 14.5 mph /  23.3 km/h 52 % 0.0 in /  0 mm 0.0 W/m2 OVC
07:47 0.0 °F /  -17.8 °C -8.7 °F /  -22.6 °C 1011.4 in /  34246 hPa WNW 9.3 mph /  15 km/h 9.3 mph /  15 km/h 52 % 0.0 in /  0 mm 0.0 W/m2 OVC
07:52 0.0 °F /  -17.8 °C -8.7 °F /  -22.6 °C 1011.4 in /  34246 hPa WNW 14.8 mph /  23.8 km/h 14.8 mph /  23.8 km/h 52 % 0.0 in /  0 mm 5.0 W/m2 OVC
07:57 0.0 °F /  -17.8 °C -8.7 °F /  -22.6 °C 1011.4 in /  34246 hPa WNW 11.1 mph /  17.9 km/h 11.1 mph /  17.9 km/h 52 % 0.0 in /  0 mm 9.0 W/m2 BKN
08:02 0.0 °F /  -17.8 °C -8.7 °F /  -22.6 °C 1011.4 in /  34246 hPa West 14.5 mph /  23.3 km/h 14.5 mph /  23.3 km/h 52 % 0.0 in /  0 mm 12.0 W/m2 BKN
08:07 0.0 °F /  -17.8 °C -8.4 °F /  -22.4 °C 1011.4 in /  34246 hPa West 14.8 mph /  23.8 km/h 14.8 mph /  23.8 km/h 53 % 0.0 in /  0 mm 16.0 W/m2 BKN
08:12 0.0 °F /  -17.8 °C -8.2 °F /  -22.3 °C 1011.4 in /  34246 hPa West 11.1 mph /  17.9 km/h 11.1 mph /  17.9 km/h 54 % 0.0 in /  0 mm 26.0 W/m2 BKN
08:17 0.0 °F /  -17.8 °C -8.2 °F /  -22.3 °C 1011.7 in /  34256.2 hPa West 11.1 mph /  17.9 km/h 11.1 mph /  17.9 km/h 54 % 0.0 in /  0 mm 26.0 W/m2 BKN
08:22 0.0 °F /  -17.8 °C -8.4 °F /  -22.4 °C 1011.7 in /  34256.2 hPa West 6.4 mph /  10.3 km/h 6.4 mph /  10.3 km/h 53 % 0.0 in /  0 mm 44.0 W/m2 BKN
08:27 0.6 °F /  -17.4 °C -7.7 °F /  -22.1 °C 1011.7 in /  34256.2 hPa WNW 8.0 mph /  12.9 km/h 8.0 mph /  12.9 km/h 54 % 0.0 in /  0 mm 53.0 W/m2 SCT
08:32 0.6 °F /  -17.4 °C -7.9 °F /  -22.2 °C 1011.4 in /  34246 hPa NW 13.0 mph /  20.9 km/h 13.0 mph /  20.9 km/h 53 % 0.0 in /  0 mm 39.0 W/m2 BKN
08:37 0.6 °F /  -17.4 °C -7.9 °F /  -22.2 °C 1011.7 in /  34256.2 hPa WNW 11.1 mph /  17.9 km/h 11.1 mph /  17.9 km/h 53 % 0.0 in /  0 mm 54.0 W/m2 SCT
08:42 0.6 °F /  -17.4 °C -7.9 °F /  -22.2 °C 1011.7 in /  34256.2 hPa WNW 5.6 mph /  9 km/h 5.6 mph /  9 km/h 53 % 0.0 in /  0 mm 67.0 W/m2 SCT
08:47 0.6 °F /  -17.4 °C -7.7 °F /  -22.1 °C 1011.7 in /  34256.2 hPa Calm     54 % 0.0 in /  0 mm 40.0 W/m2 SCT
08:52 0.6 °F /  -17.4 °C -7.7 °F /  -22.1 °C 1011.4 in /  34246 hPa Calm     54 % 0.0 in /  0 mm 67.0 W/m2 SCT
08:57 0.6 °F /  -17.4 °C -7.9 °F /  -22.2 °C 1011.4 in /  34246 hPa WNW 13.0 mph /  20.9 km/h 13.0 mph /  20.9 km/h 53 % 0.0 in /  0 mm 60.0 W/m2 SCT
09:02 1.1 °F /  -17.2 °C -7.4 °F /  -21.9 °C 1011.4 in /  34246 hPa NW 14.5 mph /  23.3 km/h 14.5 mph /  23.3 km/h 53 % 0.0 in /  0 mm 74.0 W/m2 SCT
09:07 1.1 °F /  -17.2 °C -7.7 °F /  -22.1 °C 1011.4 in /  34246 hPa NW 14.8 mph /  23.8 km/h 14.8 mph /  23.8 km/h 52 % 0.0 in /  0 mm 79.0 W/m2 FEW
09:12 1.1 °F /  -17.2 °C -7.7 °F /  -22.1 °C 1011.4 in /  34246 hPa NW 16.7 mph /  26.9 km/h 16.7 mph /  26.9 km/h 52 % 0.0 in /  0 mm 90.0 W/m2 FEW
09:17 1.1 °F /  -17.2 °C -7.4 °F /  -21.9 °C 1011.4 in /  34246 hPa NW 16.7 mph /  26.9 km/h 16.7 mph /  26.9 km/h 53 % 0.0 in /  0 mm 111.0 W/m2 FEW
09:22 1.1 °F /  -17.2 °C -7.4 °F /  -21.9 °C 1011.4 in /  34246 hPa WNW 11.1 mph /  17.9 km/h 11.1 mph /  17.9 km/h 53 % 0.0 in /  0 mm 83.0 W/m2 CLR
09:27 1.1 °F /  -17.2 °C -7.4 °F /  -21.9 °C 1011.1 in /  34235.8 hPa NNW 11.1 mph /  17.9 km/h 11.1 mph /  17.9 km/h 53 % 0.0 in /  0 mm 86.0 W/m2 CLR
09:32 1.1 °F /  -17.2 °C -7.4 °F /  -21.9 °C 1011.1 in /  34235.8 hPa NW 14.8 mph /  23.8 km/h 14.8 mph /  23.8 km/h 53 % 0.0 in /  0 mm 90.0 W/m2 CLR
09:37 1.1 °F /  -17.2 °C -7.4 °F /  -21.9 °C 1011.1 in /  34235.8 hPa WNW 11.1 mph /  17.9 km/h 11.1 mph /  17.9 km/h 53 % 0.0 in /  0 mm 91.0 W/m2 CLR
09:42 1.1 °F /  -17.2 °C -7.4 °F /  -21.9 °C 1011.1 in /  34235.8 hPa West 11.3 mph /  18.2 km/h 11.3 mph /  18.2 km/h 53 % 0.0 in /  0 mm 95.0 W/m2 CLR
09:47 1.1 °F /  -17.2 °C -7.2 °F /  -21.8 °C 1011.4 in /  34246 hPa NW 13.0 mph /  20.9 km/h 13.0 mph /  20.9 km/h 54 % 0.0 in /  0 mm 84.0 W/m2 CLR
09:52 1.1 °F /  -17.2 °C -7.4 °F /  -21.9 °C 1011.1 in /  34235.8 hPa North 5.6 mph /  9 km/h 5.6 mph /  9 km/h 53 % 0.0 in /  0 mm 74.0 W/m2 FEW
09:57 1.1 °F /  -17.2 °C -7.4 °F /  -21.9 °C 1011.1 in /  34235.8 hPa North 16.7 mph /  26.9 km/h 16.7 mph /  26.9 km/h 53 % 0.0 in /  0 mm 62.0 W/m2 FEW
10:03 1.1 °F /  -17.2 °C -7.2 °F /  -21.8 °C 1011.1 in /  34235.8 hPa NW 9.7 mph /  15.6 km/h 9.7 mph /  15.6 km/h 54 % 0.0 in /  0 mm 67.0 W/m2 SCT
10:08 1.1 °F /  -17.2 °C -7.2 °F /  -21.8 °C 1011.1 in /  34235.8 hPa NW 11.3 mph /  18.2 km/h 11.3 mph /  18.2 km/h 54 % 0.0 in /  0 mm 104.0 W/m2 FEW
10:13 1.1 °F /  -17.2 °C -7.2 °F /  -21.8 °C 1011.1 in /  34235.8 hPa NW 5.6 mph /  9 km/h 5.6 mph /  9 km/h 54 % 0.0 in /  0 mm 74.0 W/m2 FEW
10:18 1.1 °F /  -17.2 °C -7.4 °F /  -21.9 °C 1011.1 in /  34235.8 hPa NW 14.5 mph /  23.3 km/h 14.5 mph /  23.3 km/h 53 % 0.0 in /  0 mm 74.0 W/m2 FEW
10:23 1.1 °F /  -17.2 °C -7.4 °F /  -21.9 °C 1011.4 in /  34246 hPa WNW 11.1 mph /  17.9 km/h 11.1 mph /  17.9 km/h 53 % 0.0 in /  0 mm 76.0 W/m2 FEW
10:28 1.1 °F /  -17.2 °C -7.4 °F /  -21.9 °C 1011.4 in /  34246 hPa NW 5.6 mph /  9 km/h 5.6 mph /  9 km/h 53 % 0.0 in /  0 mm 65.0 W/m2 FEW
10:33 1.1 °F /  -17.2 °C -7.4 °F /  -21.9 °C 1011.4 in /  34246 hPa Calm     53 % 0.0 in /  0 mm 83.0 W/m2 FEW
10:38 1.1 °F /  -17.2 °C -7.9 °F /  -22.2 °C 1011.4 in /  34246 hPa NW 6.4 mph /  10.3 km/h 6.4 mph /  10.3 km/h 51 % 0.0 in /  0 mm 90.0 W/m2 FEW
10:43 1.1 °F /  -17.2 °C -8.7 °F /  -22.6 °C 1011.4 in /  34246 hPa NW 13.0 mph /  20.9 km/h 13.0 mph /  20.9 km/h 48 % 0.0 in /  0 mm 88.0 W/m2 CLR
10:48 1.1 °F /  -17.2 °C -8.4 °F /  -22.4 °C 1011.4 in /  34246 hPa NW 13.0 mph /  20.9 km/h 13.0 mph /  20.9 km/h 49 % 0.0 in /  0 mm 79.0 W/m2 CLR
10:53 1.1 °F /  -17.2 °C -8.7 °F /  -22.6 °C 1011.4 in /  34246 hPa NW 9.3 mph /  15 km/h 9.3 mph /  15 km/h 48 % 0.0 in /  0 mm 79.0 W/m2 FEW
10:58 1.1 °F /  -17.2 °C -8.7 °F /  -22.6 °C 1011.4 in /  34246 hPa NW 9.7 mph /  15.6 km/h 9.7 mph /  15.6 km/h 48 % 0.0 in /  0 mm 72.0 W/m2 FEW
11:03 1.1 °F /  -17.2 °C -8.7 °F /  -22.6 °C 1011.4 in /  34246 hPa WNW 7.4 mph /  11.9 km/h 7.4 mph /  11.9 km/h 48 % 0.0 in /  0 mm 81.0 W/m2 FEW
11:08 1.1 °F /  -17.2 °C -8.7 °F /  -22.6 °C 1011.4 in /  34246 hPa NW 5.6 mph /  9 km/h 5.6 mph /  9 km/h 48 % 0.0 in /  0 mm 91.0 W/m2 FEW
11:13 1.1 °F /  -17.2 °C -8.7 °F /  -22.6 °C 1011.4 in /  34246 hPa NNW 9.3 mph /  15 km/h 9.3 mph /  15 km/h 48 % 0.0 in /  0 mm 100.0 W/m2 CLR
11:18 1.1 °F /  -17.2 °C -8.4 °F /  -22.4 °C 1011.4 in /  34246 hPa NNW 9.3 mph /  15 km/h 9.3 mph /  15 km/h 49 % 0.0 in /  0 mm 116.0 W/m2 CLR
11:23 1.1 °F /  -17.2 °C -8.4 °F /  -22.4 °C 1011.1 in /  34235.8 hPa NNW 5.6 mph /  9 km/h 5.6 mph /  9 km/h 49 % 0.0 in /  0 mm 105.0 W/m2 CLR
11:29 1.1 °F /  -17.2 °C -8.2 °F /  -22.3 °C 1011.1 in /  34235.8 hPa NNW 9.7 mph /  15.6 km/h 9.7 mph /  15.6 km/h 50 % 0.0 in /  0 mm 105.0 W/m2 CLR
11:34 1.1 °F /  -17.2 °C -8.4 °F /  -22.4 °C 1011.1 in /  34235.8 hPa NNW 12.9 mph /  20.8 km/h 12.9 mph /  20.8 km/h 49 % 0.0 in /  0 mm 95.0 W/m2 CLR
11:39 1.1 °F /  -17.2 °C -8.2 °F /  -22.3 °C 1011.1 in /  34235.8 hPa North 11.1 mph /  17.9 km/h 11.1 mph /  17.9 km/h 50 % 0.0 in /  0 mm 90.0 W/m2 CLR
11:44 1.1 °F /  -17.2 °C -8.2 °F /  -22.3 °C 1011.1 in /  34235.8 hPa NW 5.6 mph /  9 km/h 5.6 mph /  9 km/h 50 % 0.0 in /  0 mm 84.0 W/m2 CLR
11:49 1.1 °F /  -17.2 °C -8.7 °F /  -22.6 °C 1011.4 in /  34246 hPa North 7.4 mph /  11.9 km/h 7.4 mph /  11.9 km/h 48 % 0.0 in /  0 mm 79.0 W/m2 FEW
11:54 1.1 °F /  -17.2 °C -8.9 °F /  -22.7 °C 1011.4 in /  34246 hPa NNW 14.8 mph /  23.8 km/h 14.8 mph /  23.8 km/h 47 % 0.0 in /  0 mm 81.0 W/m2 FEW
11:59 1.1 °F /  -17.2 °C -9.2 °F /  -22.9 °C 1011.4 in /  34246 hPa North 13.0 mph /  20.9 km/h 13.0 mph /  20.9 km/h 46 % 0.0 in /  0 mm 77.0 W/m2 FEW
12:04 1.1 °F /  -17.2 °C -9.2 °F /  -22.9 °C 1011.4 in /  34246 hPa North 11.1 mph /  17.9 km/h 11.1 mph /  17.9 km/h 46 % 0.0 in /  0 mm 79.0 W/m2 FEW
12:09 1.1 °F /  -17.2 °C -9.5 °F /  -23.1 °C 1011.4 in /  34246 hPa NNW 13.0 mph /  20.9 km/h 13.0 mph /  20.9 km/h 45 % 0.0 in /  0 mm 76.0 W/m2 FEW
12:14 1.1 °F /  -17.2 °C -9.5 °F /  -23.1 °C 1011.4 in /  34246 hPa NNW 13.0 mph /  20.9 km/h 13.0 mph /  20.9 km/h 45 % 0.0 in /  0 mm 70.0 W/m2 FEW
12:19 1.1 °F /  -17.2 °C -9.5 °F /  -23.1 °C 1011.4 in /  34246 hPa NNW 11.1 mph /  17.9 km/h 11.1 mph /  17.9 km/h 45 % 0.0 in /  0 mm 74.0 W/m2 FEW
12:24 1.1 °F /  -17.2 °C -9.5 °F /  -23.1 °C 1011.4 in /  34246 hPa NNW 6.4 mph /  10.3 km/h 6.4 mph /  10.3 km/h 45 % 0.0 in /  0 mm 81.0 W/m2 FEW
12:29 1.1 °F /  -17.2 °C -9.5 °F /  -23.1 °C 1011.4 in /  34246 hPa Calm     45 % 0.0 in /  0 mm 79.0 W/m2 FEW
12:35 1.1 °F /  -17.2 °C -9.5 °F /  -23.1 °C 1011.4 in /  34246 hPa North 13.0 mph /  20.9 km/h 13.0 mph /  20.9 km/h 45 % 0.0 in /  0 mm 79.0 W/m2 FEW
12:40 1.1 °F /  -17.2 °C -9.2 °F /  -22.9 °C 1011.4 in /  34246 hPa NW 7.4 mph /  11.9 km/h 7.4 mph /  11.9 km/h 46 % 0.0 in /  0 mm 83.0 W/m2 FEW
12:45 1.1 °F /  -17.2 °C -9.2 °F /  -22.9 °C 1011.4 in /  34246 hPa North 8.0 mph /  12.9 km/h 8.0 mph /  12.9 km/h 46 % 0.0 in /  0 mm 81.0 W/m2 FEW
12:50 1.1 °F /  -17.2 °C -9.2 °F /  -22.9 °C 1011.7 in /  34256.2 hPa North 7.4 mph /  11.9 km/h 7.4 mph /  11.9 km/h 46 % 0.0 in /  0 mm 79.0 W/m2 FEW
12:55 1.1 °F /  -17.2 °C -9.5 °F /  -23.1 °C 1011.4 in /  34246 hPa Calm     45 % 0.0 in /  0 mm 86.0 W/m2 FEW
13:00 1.1 °F /  -17.2 °C -8.9 °F /  -22.7 °C 1011.4 in /  34246 hPa NNW 7.4 mph /  11.9 km/h 7.4 mph /  11.9 km/h 47 % 0.0 in /  0 mm 98.0 W/m2 CLR
13:05 1.1 °F /  -17.2 °C -9.2 °F /  -22.9 °C 1011.4 in /  34246 hPa Calm     46 % 0.0 in /  0 mm 81.0 W/m2 CLR
13:10 1.1 °F /  -17.2 °C -9.2 °F /  -22.9 °C 1011.4 in /  34246 hPa NNW 9.3 mph /  15 km/h 9.3 mph /  15 km/h 46 % 0.0 in /  0 mm 72.0 W/m2 CLR
13:15 1.1 °F /  -17.2 °C -9.8 °F /  -23.2 °C 1011.4 in /  34246 hPa NW 7.4 mph /  11.9 km/h 7.4 mph /  11.9 km/h 44 % 0.0 in /  0 mm 70.0 W/m2 FEW
13:20 1.1 °F /  -17.2 °C -9.5 °F /  -23.1 °C 1011.4 in /  34246 hPa Calm     45 % 0.0 in /  0 mm 69.0 W/m2 FEW
13:25 1.1 °F /  -17.2 °C -9.5 °F /  -23.1 °C 1011.4 in /  34246 hPa Calm     45 % 0.0 in /  0 mm 63.0 W/m2 FEW
13:30 1.1 °F /  -17.2 °C -9.8 °F /  -23.2 °C 1011.1 in /  34235.8 hPa Calm     44 % 0.0 in /  0 mm 72.0 W/m2 FEW
13:35 1.1 °F /  -17.2 °C -9.5 °F /  -23.1 °C 1011.1 in /  34235.8 hPa Calm     45 % 0.0 in /  0 mm 81.0 W/m2 FEW
13:40 1.1 °F /  -17.2 °C -9.8 °F /  -23.2 °C 1011.1 in /  34235.8 hPa Calm     44 % 0.0 in /  0 mm 79.0 W/m2 FEW
13:45 1.1 °F /  -17.2 °C -9.8 °F /  -23.2 °C 1011.1 in /  34235.8 hPa Calm     44 % 0.0 in /  0 mm 79.0 W/m2 FEW
13:50 1.1 °F /  -17.2 °C -9.8 °F /  -23.2 °C 1011.1 in /  34235.8 hPa Calm     44 % 0.0 in /  0 mm 88.0 W/m2 FEW
13:55 1.1 °F /  -17.2 °C -9.8 °F /  -23.2 °C 1011.1 in /  34235.8 hPa Calm     44 % 0.0 in /  0 mm 79.0 W/m2 FEW
14:00 1.1 °F /  -17.2 °C -10.1 °F /  -23.4 °C 1011.1 in /  34235.8 hPa Calm     43 % 0.0 in /  0 mm 86.0 W/m2 FEW
14:05 1.1 °F /  -17.2 °C -10.1 °F /  -23.4 °C 1010.7 in /  34222.3 hPa Calm     43 % 0.0 in /  0 mm 91.0 W/m2 CLR
14:10 1.1 °F /  -17.2 °C -10.1 °F /  -23.4 °C 1010.7 in /  34222.3 hPa Calm     43 % 0.0 in /  0 mm 100.0 W/m2 CLR
14:15 1.1 °F /  -17.2 °C -10.1 °F /  -23.4 °C 1010.7 in /  34222.3 hPa Calm     43 % 0.0 in /  0 mm 100.0 W/m2 CLR
14:20 1.1 °F /  -17.2 °C -10.4 °F /  -23.6 °C 1010.7 in /  34222.3 hPa Calm     42 % 0.0 in /  0 mm 100.0 W/m2 CLR
14:25 1.7 °F /  -16.8 °C -9.9 °F /  -23.3 °C 1010.7 in /  34222.3 hPa Calm     42 % 0.0 in /  0 mm 105.0 W/m2 CLR
14:30 1.7 °F /  -16.8 °C -9.9 °F /  -23.3 °C 1010.4 in /  34212.1 hPa Calm     42 % 0.0 in /  0 mm 100.0 W/m2 CLR
14:35 1.7 °F /  -16.8 °C -9.9 °F /  -23.3 °C 1010.4 in /  34212.1 hPa Calm     42 % 0.0 in /  0 mm 91.0 W/m2 CLR
14:40 1.7 °F /  -16.8 °C -9.9 °F /  -23.3 °C 1010.4 in /  34212.1 hPa Calm     42 % 0.0 in /  0 mm 102.0 W/m2 CLR
14:45 1.7 °F /  -16.8 °C -9.9 °F /  -23.3 °C 1010.4 in /  34212.1 hPa Calm     42 % 0.0 in /  0 mm 102.0 W/m2 CLR
14:50 1.7 °F /  -16.8 °C -9.9 °F /  -23.3 °C 1010.7 in /  34222.3 hPa Calm     42 % 0.0 in /  0 mm 95.0 W/m2 CLR
14:55 1.7 °F /  -16.8 °C -9.9 °F /  -23.3 °C 1010.4 in /  34212.1 hPa Calm     42 % 0.0 in /  0 mm 93.0 W/m2 CLR
14:57 1.7 °F /  -16.8 °C -9.9 °F /  -23.3 °C 1010.4 in /  34212.1 hPa Calm     42 % 0.0 in /  0 mm 93.0 W/m2 CLR
15:02 1.7 °F /  -16.8 °C -9.9 °F /  -23.3 °C 1010.4 in /  34212.1 hPa Calm     42 % 0.0 in /  0 mm 86.0 W/m2 CLR
15:07 1.7 °F /  -16.8 °C -9.9 °F /  -23.3 °C 1010.7 in /  34222.3 hPa Calm     42 % 0.0 in /  0 mm 95.0 W/m2 CLR
15:12 1.7 °F /  -16.8 °C -9.9 °F /  -23.3 °C 1010.4 in /  34212.1 hPa Calm     42 % 0.0 in /  0 mm 100.0 W/m2 CLR
15:17 1.7 °F /  -16.8 °C -9.9 °F /  -23.3 °C 1010.4 in /  34212.1 hPa Calm     42 % 0.0 in /  0 mm 90.0 W/m2 CLR
15:22 1.7 °F /  -16.8 °C -9.6 °F /  -23.1 °C 1010.4 in /  34212.1 hPa Calm     43 % 0.0 in /  0 mm 72.0 W/m2 CLR
15:27 1.7 °F /  -16.8 °C -9.9 °F /  -23.3 °C 1010.4 in /  34212.1 hPa Calm     42 % 0.0 in /  0 mm 72.0 W/m2 FEW
15:32 1.7 °F /  -16.8 °C -9.9 °F /  -23.3 °C 1010.4 in /  34212.1 hPa Calm     42 % 0.0 in /  0 mm 69.0 W/m2 FEW
15:37 1.7 °F /  -16.8 °C -9.6 °F /  -23.1 °C 1010.4 in /  34212.1 hPa Calm     43 % 0.0 in /  0 mm 65.0 W/m2 FEW
15:42 1.7 °F /  -16.8 °C -9.6 °F /  -23.1 °C 1010.4 in /  34212.1 hPa Calm     43 % 0.0 in /  0 mm 90.0 W/m2 FEW
15:47 1.7 °F /  -16.8 °C -9.6 °F /  -23.1 °C 1010.4 in /  34212.1 hPa Calm     43 % 0.0 in /  0 mm 113.0 W/m2 CLR
15:52 1.7 °F /  -16.8 °C -9.6 °F /  -23.1 °C 1010.0 in /  34198.6 hPa Calm     43 % 0.0 in /  0 mm 141.0 W/m2 CLR
15:57 1.7 °F /  -16.8 °C -9.9 °F /  -23.3 °C 1010.4 in /  34212.1 hPa Calm     42 % 0.0 in /  0 mm 95.0 W/m2 CLR
16:02 1.7 °F /  -16.8 °C -9.6 °F /  -23.1 °C 1010.0 in /  34198.6 hPa Calm     43 % 0.0 in /  0 mm 116.0 W/m2 CLR
16:07 1.7 °F /  -16.8 °C -9.6 °F /  -23.1 °C 1010.0 in /  34198.6 hPa Calm     43 % 0.0 in /  0 mm 100.0 W/m2 CLR
16:12 1.7 °F /  -16.8 °C -9.6 °F /  -23.1 °C 1010.0 in /  34198.6 hPa Calm     43 % 0.0 in /  0 mm 79.0 W/m2 CLR
16:17 1.7 °F /  -16.8 °C -9.6 °F /  -23.1 °C 1010.0 in /  34198.6 hPa Calm     43 % 0.0 in /  0 mm 100.0 W/m2 CLR
16:22 1.7 °F /  -16.8 °C -9.3 °F /  -22.9 °C 1010.0 in /  34198.6 hPa Calm     44 % 0.0 in /  0 mm 111.0 W/m2 CLR
16:27 1.7 °F /  -16.8 °C -9.3 °F /  -22.9 °C 1010.0 in /  34198.6 hPa Calm     44 % 0.0 in /  0 mm 130.0 W/m2 CLR
16:32 1.7 °F /  -16.8 °C -9.3 °F /  -22.9 °C 1010.0 in /  34198.6 hPa Calm     44 % 0.0 in /  0 mm 84.0 W/m2 CLR
16:37 1.7 °F /  -16.8 °C -9.3 °F /  -22.9 °C 1010.0 in /  34198.6 hPa Calm     44 % 0.0 in /  0 mm 120.0 W/m2 CLR
16:42 1.7 °F /  -16.8 °C -9.6 °F /  -23.1 °C 1010.0 in /  34198.6 hPa Calm     43 % 0.0 in /  0 mm 84.0 W/m2 CLR
16:47 1.7 °F /  -16.8 °C -9.6 °F /  -23.1 °C 1010.0 in /  34198.6 hPa Calm     43 % 0.0 in /  0 mm 74.0 W/m2 FEW
16:52 1.7 °F /  -16.8 °C -9.6 °F /  -23.1 °C 1010.0 in /  34198.6 hPa Calm     43 % 0.0 in /  0 mm 63.0 W/m2 FEW
16:57 1.7 °F /  -16.8 °C -9.3 °F /  -22.9 °C 1010.0 in /  34198.6 hPa Calm     44 % 0.0 in /  0 mm 60.0 W/m2 FEW
17:02 1.7 °F /  -16.8 °C -9.3 °F /  -22.9 °C 1010.0 in /  34198.6 hPa Calm     44 % 0.0 in /  0 mm 62.0 W/m2 SCT
17:07 2.1 °F /  -16.6 °C -8.7 °F /  -22.6 °C 1009.7 in /  34188.4 hPa Calm     45 % 0.0 in /  0 mm 58.0 W/m2 SCT
17:12 2.1 °F /  -16.6 °C -8.4 °F /  -22.4 °C 1010.0 in /  34198.6 hPa Calm     46 % 0.0 in /  0 mm 44.0 W/m2 SCT
17:17 2.1 °F /  -16.6 °C -8.4 °F /  -22.4 °C 1010.0 in /  34198.6 hPa Calm     46 % 0.0 in /  0 mm 33.0 W/m2 SCT
17:22 2.0 °F /  -16.7 °C -8.4 °F /  -22.4 °C 1010.0 in /  34198.6 hPa Calm     46 % 0.0 in /  0 mm 30.0 W/m2 BKN
17:27 1.9 °F /  -16.7 °C -8.2 °F /  -22.3 °C 1010.0 in /  34198.6 hPa Calm     47 % 0.0 in /  0 mm 30.0 W/m2 BKN
17:32 1.9 °F /  -16.7 °C -7.9 °F /  -22.2 °C 1010.0 in /  34198.6 hPa Calm     48 % 0.0 in /  0 mm 37.0 W/m2 BKN
17:37 1.9 °F /  -16.7 °C -7.9 °F /  -22.2 °C 1010.0 in /  34198.6 hPa Calm     48 % 0.0 in /  0 mm 32.0 W/m2 BKN
17:42 1.9 °F /  -16.7 °C -7.7 °F /  -22.1 °C 1010.0 in /  34198.6 hPa Calm     49 % 0.0 in /  0 mm 25.0 W/m2 BKN
17:47 1.9 °F /  -16.7 °C -7.4 °F /  -21.9 °C 1010.0 in /  34198.6 hPa Calm     50 % 0.0 in /  0 mm 19.0 W/m2 BKN
17:52 1.9 °F /  -16.7 °C -7.2 °F /  -21.8 °C 1010.0 in /  34198.6 hPa Calm     51 % 0.0 in /  0 mm 18.0 W/m2 BKN
17:57 1.9 °F /  -16.7 °C -6.7 °F /  -21.5 °C 1010.0 in /  34198.6 hPa Calm     53 % 0.0 in /  0 mm 12.0 W/m2 BKN
18:02 1.9 °F /  -16.7 °C -6.4 °F /  -21.3 °C 1010.0 in /  34198.6 hPa Calm     54 % 0.0 in /  0 mm 9.0 W/m2 BKN
18:07 1.9 °F /  -16.7 °C -6.4 °F /  -21.3 °C 1010.4 in /  34212.1 hPa Calm     54 % 0.0 in /  0 mm 5.0 W/m2 OVC
18:12 1.9 °F /  -16.7 °C -6.9 °F /  -21.6 °C 1010.4 in /  34212.1 hPa Calm     52 % 0.0 in /  0 mm 5.0 W/m2 OVC
18:17 1.8 °F /  -16.8 °C -7.0 °F /  -21.7 °C 1010.4 in /  34212.1 hPa Calm     52 % 0.0 in /  0 mm 7.0 W/m2 BKN
18:22 1.8 °F /  -16.8 °C -6.8 °F /  -21.6 °C 1010.0 in /  34198.6 hPa Calm     53 % 0.0 in /  0 mm 7.0 W/m2 BKN
18:27 1.7 °F /  -16.8 °C -6.8 °F /  -21.6 °C 1010.4 in /  34212.1 hPa Calm     53 % 0.0 in /  0 mm 5.0 W/m2 BKN
18:32 1.7 °F /  -16.8 °C -7.1 °F /  -21.7 °C 1010.4 in /  34212.1 hPa Calm     52 % 0.0 in /  0 mm 0.0 W/m2 OVC
18:37 1.7 °F /  -16.8 °C -7.2 °F /  -21.8 °C 1010.7 in /  34222.3 hPa Calm     52 % 0.0 in /  0 mm 0.0 W/m2 OVC
18:42 1.7 °F /  -16.8 °C -7.2 °F /  -21.8 °C 1010.7 in /  34222.3 hPa Calm     52 % 0.0 in /  0 mm 0.0 W/m2 OVC
18:47 1.6 °F /  -16.9 °C -7.2 °F /  -21.8 °C 1010.7 in /  34222.3 hPa Calm     52 % 0.0 in /  0 mm 0.0 W/m2 OVC
18:52 1.6 °F /  -16.9 °C -6.4 °F /  -21.3 °C 1010.7 in /  34222.3 hPa Calm     55 % 0.0 in /  0 mm 0.0 W/m2 OVC
18:57 1.6 °F /  -16.9 °C -5.6 °F /  -20.9 °C 1010.4 in /  34212.1 hPa Calm     59 % 0.0 in /  0 mm 0.0 W/m2 OVC
19:02 1.4 °F /  -17 °C -4.3 °F /  -20.2 °C 1010.7 in /  34222.3 hPa ESE 7.4 mph /  11.9 km/h 7.4 mph /  11.9 km/h 66 % 0.0 in /  0 mm 0.0 W/m2 CLR
19:07 1.2 °F /  -17.1 °C -3.8 °F /  -19.9 °C 1010.4 in /  34212.1 hPa ESE 7.4 mph /  11.9 km/h 7.4 mph /  11.9 km/h 69 % 0.0 in /  0 mm 0.0 W/m2 CLR
19:12 1.2 °F /  -17.1 °C -3.5 °F /  -19.7 °C 1010.7 in /  34222.3 hPa ESE 5.6 mph /  9 km/h 5.6 mph /  9 km/h 71 % 0.0 in /  0 mm 0.0 W/m2 CLR
19:17 1.1 °F /  -17.2 °C -3.4 °F /  -19.7 °C 1010.7 in /  34222.3 hPa ENE 9.7 mph /  15.6 km/h 9.7 mph /  15.6 km/h 72 % 0.0 in /  0 mm 0.0 W/m2 CLR
19:22 0.9 °F /  -17.3 °C -3.2 °F /  -19.6 °C 1011.1 in /  34235.8 hPa ENE 13.0 mph /  20.9 km/h 13.0 mph /  20.9 km/h 74 % 0.0 in /  0 mm 0.0 W/m2 CLR
19:27 0.8 °F /  -17.3 °C -2.9 °F /  -19.4 °C 1011.1 in /  34235.8 hPa ENE 16.7 mph /  26.9 km/h 16.7 mph /  26.9 km/h 76 % 0.0 in /  0 mm 0.0 W/m2 CLR
19:32 0.7 °F /  -17.4 °C -2.7 °F /  -19.3 °C 1011.4 in /  34246 hPa ENE 13.0 mph /  20.9 km/h 13.0 mph /  20.9 km/h 78 % 0.0 in /  0 mm 0.0 W/m2 CLR
19:37 0.6 °F /  -17.4 °C -2.7 °F /  -19.3 °C 1011.1 in /  34235.8 hPa ENE 13.0 mph /  20.9 km/h 13.0 mph /  20.9 km/h 79 % 0.0 in /  0 mm 0.0 W/m2 CLR
19:42 0.4 °F /  -17.6 °C -2.6 °F /  -19.2 °C 1010.7 in /  34222.3 hPa ENE 13.0 mph /  20.9 km/h 13.0 mph /  20.9 km/h 80 % 0.0 in /  0 mm 0.0 W/m2 CLR
19:47 0.3 °F /  -17.6 °C -2.6 °F /  -19.2 °C 1011.1 in /  34235.8 hPa ENE 7.4 mph /  11.9 km/h 7.4 mph /  11.9 km/h 81 % 0.0 in /  0 mm 0.0 W/m2 CLR
19:52 0.2 °F /  -17.7 °C -2.5 °F /  -19.2 °C 1011.1 in /  34235.8 hPa ENE 9.7 mph /  15.6 km/h 9.7 mph /  15.6 km/h 82 % 0.0 in /  0 mm 0.0 W/m2 CLR
19:57 0.2 °F /  -17.7 °C -2.6 °F /  -19.2 °C 1011.4 in /  34246 hPa ENE 14.8 mph /  23.8 km/h 14.8 mph /  23.8 km/h 82 % 0.0 in /  0 mm 0.0 W/m2 CLR
20:02 0.1 °F /  -17.7 °C -2.4 °F /  -19.1 °C 1011.4 in /  34246 hPa ENE 9.3 mph /  15 km/h 9.5 mph /  15.3 km/h 83 % 0.0 in /  0 mm 0.0 W/m2 CLR
20:07 0.1 °F /  -17.7 °C -2.4 °F /  -19.1 °C 1011.4 in /  34246 hPa East 7.4 mph /  11.9 km/h 7.4 mph /  11.9 km/h 83 % 0.0 in /  0 mm 0.0 W/m2 CLR
20:08 0.1 °F /  -17.7 °C -2.5 °F /  -19.2 °C 1011.4 in /  34246 hPa East 7.4 mph /  11.9 km/h 7.4 mph /  11.9 km/h 83 % 0.0 in /  0 mm 0.0 W/m2 CLR
20:13 0.1 °F /  -17.7 °C -2.5 °F /  -19.2 °C 1011.4 in /  34246 hPa East 7.4 mph /  11.9 km/h 7.4 mph /  11.9 km/h 83 % 0.0 in /  0 mm 0.0 W/m2 CLR
20:18 0.0 °F /  -17.8 °C -2.4 °F /  -19.1 °C 1011.4 in /  34246 hPa ENE 5.6 mph /  9 km/h 5.6 mph /  9 km/h 84 % 0.0 in /  0 mm 0.0 W/m2 CLR
20:23 0.0 °F /  -17.8 °C -2.4 °F /  -19.1 °C 1011.4 in /  34246 hPa ENE 8.0 mph /  12.9 km/h 8.0 mph /  12.9 km/h 84 % 0.0 in /  0 mm 0.0 W/m2 CLR
20:28 0.0 °F /  -17.8 °C -2.4 °F /  -19.1 °C 1011.4 in /  34246 hPa East 5.6 mph /  9 km/h 5.6 mph /  9 km/h 84 % 0.0 in /  0 mm 0.0 W/m2 CLR
20:33 0.0 °F /  -17.8 °C -2.4 °F /  -19.1 °C 1011.4 in /  34246 hPa Calm     84 % 0.0 in /  0 mm 0.0 W/m2 CLR
20:38 -0.1 °F /  -17.8 °C -2.4 °F /  -19.1 °C 1011.4 in /  34246 hPa Calm     84 % 0.0 in /  0 mm 0.0 W/m2 CLR
20:43 -0.1 °F /  -17.8 °C -2.3 °F /  -19.1 °C 1011.4 in /  34246 hPa Calm     85 % 0.0 in /  0 mm 0.0 W/m2 CLR
20:48 -0.1 °F /  -17.8 °C -2.3 °F /  -19.1 °C 1011.4 in /  34246 hPa Calm     85 % 0.0 in /  0 mm 0.0 W/m2 CLR
20:53 -0.1 °F /  -17.8 °C -2.3 °F /  -19.1 °C 1011.1 in /  34235.8 hPa Calm     85 % 0.0 in /  0 mm 0.0 W/m2 CLR
20:58 -0.1 °F /  -17.8 °C -2.3 °F /  -19.1 °C 1011.1 in /  34235.8 hPa Calm     85 % 0.0 in /  0 mm 0.0 W/m2 CLR
21:03 -0.2 °F /  -17.9 °C -2.4 °F /  -19.1 °C 1011.1 in /  34235.8 hPa Calm     85 % 0.0 in /  0 mm 0.0 W/m2 CLR
21:08 -0.2 °F /  -17.9 °C -2.4 °F /  -19.1 °C 1011.1 in /  34235.8 hPa Calm     85 % 0.0 in /  0 mm 0.0 W/m2 CLR
21:13 -0.2 °F /  -17.9 °C -2.4 °F /  -19.1 °C 1011.1 in /  34235.8 hPa Calm     85 % 0.0 in /  0 mm 0.0 W/m2 CLR
21:18 -0.1 °F /  -17.8 °C -2.2 °F /  -19 °C 1011.1 in /  34235.8 hPa Calm     86 % 0.0 in /  0 mm 0.0 W/m2 CLR
21:23 -0.1 °F /  -17.8 °C -2.2 °F /  -19 °C 1010.7 in /  34222.3 hPa Calm     86 % 0.0 in /  0 mm 0.0 W/m2 CLR
21:28 -0.1 °F /  -17.8 °C -2.1 °F /  -18.9 °C 1011.1 in /  34235.8 hPa Calm     86 % 0.0 in /  0 mm 0.0 W/m2 CLR
21:33 -0.1 °F /  -17.8 °C -2.1 °F /  -18.9 °C 1011.1 in /  34235.8 hPa Calm     86 % 0.0 in /  0 mm 0.0 W/m2 CLR
21:38 0.0 °F /  -17.8 °C -2.1 °F /  -18.9 °C 1011.4 in /  34246 hPa Calm     86 % 0.0 in /  0 mm 0.0 W/m2 CLR
21:43 0.1 °F /  -17.7 °C -2.0 °F /  -18.9 °C 1011.4 in /  34246 hPa Calm     86 % 0.0 in /  0 mm 0.0 W/m2 CLR
21:48 0.1 °F /  -17.7 °C -2.0 °F /  -18.9 °C 1011.4 in /  34246 hPa Calm     86 % 0.0 in /  0 mm 0.0 W/m2 CLR
21:53 0.1 °F /  -17.7 °C -2.0 °F /  -18.9 °C 1011.4 in /  34246 hPa Calm     86 % 0.0 in /  0 mm 0.0 W/m2 CLR
21:58 0.1 °F /  -17.7 °C -2.0 °F /  -18.9 °C 1011.4 in /  34246 hPa Calm     86 % 0.0 in /  0 mm 0.0 W/m2 CLR
22:03 0.1 °F /  -17.7 °C -2.0 °F /  -18.9 °C 1011.4 in /  34246 hPa Calm     86 % 0.0 in /  0 mm 0.0 W/m2 CLR
22:08 0.1 °F /  -17.7 °C -1.9 °F /  -18.8 °C 1011.1 in /  34235.8 hPa Calm     86 % 0.0 in /  0 mm 0.0 W/m2 CLR
22:13 0.1 °F /  -17.7 °C -1.9 °F /  -18.8 °C 1011.1 in /  34235.8 hPa Calm     86 % 0.0 in /  0 mm 0.0 W/m2 CLR
22:18 0.2 °F /  -17.7 °C -1.9 °F /  -18.8 °C 1011.1 in /  34235.8 hPa Calm     86 % 0.0 in /  0 mm 0.0 W/m2 CLR
22:23 0.2 °F /  -17.7 °C -1.8 °F /  -18.8 °C 1011.1 in /  34235.8 hPa Calm     86 % 0.0 in /  0 mm 0.0 W/m2 CLR
22:28 0.2 °F /  -17.7 °C -1.8 °F /  -18.8 °C 1011.1 in /  34235.8 hPa Calm     86 % 0.0 in /  0 mm 0.0 W/m2 CLR
22:33 0.2 °F /  -17.7 °C -1.8 °F /  -18.8 °C 1011.1 in /  34235.8 hPa Calm     86 % 0.0 in /  0 mm 0.0 W/m2 CLR
22:38 0.2 °F /  -17.7 °C -1.8 °F /  -18.8 °C 1011.1 in /  34235.8 hPa Calm     86 % 0.0 in /  0 mm 0.0 W/m2 CLR
22:43 0.3 °F /  -17.6 °C -1.8 °F /  -18.8 °C 1011.1 in /  34235.8 hPa Calm     86 % 0.0 in /  0 mm 0.0 W/m2 CLR
22:48 0.3 °F /  -17.6 °C -1.8 °F /  -18.8 °C 1011.1 in /  34235.8 hPa Calm     86 % 0.0 in /  0 mm 0.0 W/m2 CLR
22:53 0.3 °F /  -17.6 °C -1.7 °F /  -18.7 °C 1011.1 in /  34235.8 hPa Calm     86 % 0.0 in /  0 mm 0.0 W/m2 CLR
22:58 0.4 °F /  -17.6 °C -1.7 °F /  -18.7 °C 1011.1 in /  34235.8 hPa Calm     86 % 0.0 in /  0 mm 0.0 W/m2 CLR
23:03 0.4 °F /  -17.6 °C -1.6 °F /  -18.7 °C 1011.1 in /  34235.8 hPa Calm     86 % 0.0 in /  0 mm 0.0 W/m2 CLR
23:08 0.4 °F /  -17.6 °C -1.6 °F /  -18.7 °C 1011.1 in /  34235.8 hPa Calm     86 % 0.0 in /  0 mm 0.0 W/m2 CLR
23:13 0.4 °F /  -17.6 °C -1.6 °F /  -18.7 °C 1010.7 in /  34222.3 hPa Calm     86 % 0.0 in /  0 mm 0.0 W/m2 CLR
23:18 0.5 °F /  -17.5 °C -1.6 °F /  -18.7 °C 1010.7 in /  34222.3 hPa Calm     86 % 0.0 in /  0 mm 0.0 W/m2 CLR
23:23 0.5 °F /  -17.5 °C -1.6 °F /  -18.7 °C 1010.7 in /  34222.3 hPa Calm     86 % 0.0 in /  0 mm 0.0 W/m2 CLR
23:28 0.5 °F /  -17.5 °C -1.6 °F /  -18.7 °C 1010.7 in /  34222.3 hPa Calm     86 % 0.0 in /  0 mm 0.0 W/m2 CLR
23:33 0.6 °F /  -17.4 °C -1.5 °F /  -18.6 °C 1010.7 in /  34222.3 hPa Calm     86 % 0.0 in /  0 mm 0.0 W/m2 CLR
23:38 0.6 °F /  -17.4 °C -1.4 °F /  -18.6 °C 1010.7 in /  34222.3 hPa Calm     86 % 0.0 in /  0 mm 0.0 W/m2 CLR
23:43 0.6 °F /  -17.4 °C -1.4 °F /  -18.6 °C 1010.7 in /  34222.3 hPa Calm     86 % 0.0 in /  0 mm 0.0 W/m2 CLR
23:48 0.7 °F /  -17.4 °C -1.4 °F /  -18.6 °C 1010.4 in /  34212.1 hPa Calm     86 % 0.0 in /  0 mm 0.0 W/m2 CLR
23:53 0.6 °F /  -17.4 °C -1.4 °F /  -18.6 °C 1010.4 in /  34212.1 hPa Calm     86 % 0.0 in /  0 mm 0.0 W/m2 CLR
23:58 0.6 °F /  -17.4 °C -1.4 °F /  -18.6 °C 1010.0 in /  34198.6 hPa Calm     86 % 0.0 in /  0 mm 0.0 W/m2 CLR
Lo Temps de Massalio
Compliments of Weather Underground - 1.25 mb